Potomac, IL (61865)

8:54 PM CDT on August 29, 2014 (GMT -0500)
K9ADL | Change Station
CLOSE
Current Station
Personal Weather Station
Location: Oakwood, IL
Elevation: 725 ft
Nearby Weather Stations

Elev 725 ft 40.17 °N, 87.77 °W | Updated 12 seconds ago

Partly Cloudy
Partly Cloudy
74.5 °F
Feels Like 71 °F
N
1.6
Wind Variable Wind from SE
Gusts 1.6 mph

Today
High -- | Low -- °F
--% Chance of Precip.
Yesterday
High -- | Low -- °F
Precip. -- in
6:15 AM 7:27 PM
Waxing Crescent, 18% visible
Pressure 29.90 in
Visibility 7.0 miles
Clouds Clear
Heat Index 71 °F
Dew Point 74 °F
Humidity 99%
Rainfall 0.00 in
Snow Depth Not available.
UV 0 out of 12
Pollen 10.20 out of 12
Air Quality Not available.
Flu Activity Not available.
METAR KDNV 300135Z AUTO 18005KT 7SM RA CLR 22/21 A2990 RMK AO2 T02170206

More Conditions Fewer Conditions

Pressure 29.90 in
Visibility 7.0 miles
Clouds Clear
Heat Index 71 °F
Dew Point 74 °F
Humidity 99%
Rainfall 0.00 in
Snow Depth Not available.
UV 0 out of 12
Pollen 10.20 out of 12
Air Quality Not available.
Flu Activity Not available.
METAR KDNV 300135Z AUTO 18005KT 7SM RA CLR 22/21 A2990 RMK AO2 T02170206

More Conditions Fewer Conditions

10-Day Weather Forecast

Almanac

Astronomy

Aug. 29, 2014 Rise Set
Actual Time 6:15 AM CDT 7:27 PM CDT
Civil Twilight 5:47 AM CDT 7:55 PM CDT
Nautical Twilight 5:14 AM CDT 8:29 PM CDT
Astronomical Twilight 4:38 AM CDT 9:04 PM CDT
Moon 10:05 AM CDT (8/29) 9:24 PM CDT (8/29)
Length of Visible Light 14h 08m
Length of Day
13h 11m
Tomorrow will be 2m 31s shorter.
Waxing Crescent, 18% of the Moon is Illuminated
Today
Waxing Crescent
Sep 2
First Quarter
Sep 8
Full
Sep 15
Last Quarter
Sep 24
New

Today's Extremes

State Highs State Lows

Community

WunderPhotos

Upload Photos

1,748,403 photos uploaded!

Nearby

Snow Depth

Station Depth Elevation
No new snow has been reported.

Earthquake Activity

City Distance Mag. Time & Date
No recent earthquake activity has been reported nearby.
Minimum magnitude displayed is 2.5.

Coastal Water Temperatures

Place Temperature
No Stations Reporting

Nearby Weather Stations